sensor_id;sensor_type;location;lat;lon;timestamp;temperature;humidity
4813;DHT22;2420;51.202;8.698;2024-03-08T00:00:14;1.00;1.00
4813;DHT22;2420;51.202;8.698;2024-03-08T00:02:41;0.80;1.00
4813;DHT22;2420;51.202;8.698;2024-03-08T00:05:08;0.90;1.00
4813;DHT22;2420;51.202;8.698;2024-03-08T00:07:37;0.80;1.00
4813;DHT22;2420;51.202;8.698;2024-03-08T00:10:08;0.70;1.00
4813;DHT22;2420;51.202;8.698;2024-03-08T00:12:40;0.50;1.00
4813;DHT22;2420;51.202;8.698;2024-03-08T00:15:08;0.50;1.00
4813;DHT22;2420;51.202;8.698;2024-03-08T00:17:34;0.50;1.00
4813;DHT22;2420;51.202;8.698;2024-03-08T00:19:59;0.50;1.00
4813;DHT22;2420;51.202;8.698;2024-03-08T00:22:25;0.40;1.00
4813;DHT22;2420;51.202;8.698;2024-03-08T00:24:51;0.30;1.00
4813;DHT22;2420;51.202;8.698;2024-03-08T00:27:16;0.10;1.00
4813;DHT22;2420;51.202;8.698;2024-03-08T00:29:42;0.20;1.00
4813;DHT22;2420;51.202;8.698;2024-03-08T00:32:07;0.10;1.00
4813;DHT22;2420;51.202;8.698;2024-03-08T00:34:35;0.20;1.00
4813;DHT22;2420;51.202;8.698;2024-03-08T00:37:02;0.20;1.00
4813;DHT22;2420;51.202;8.698;2024-03-08T00:39:28;0.20;1.00
4813;DHT22;2420;51.202;8.698;2024-03-08T00:41:54;0.20;1.00
4813;DHT22;2420;51.202;8.698;2024-03-08T00:44:19;0.10;1.00
4813;DHT22;2420;51.202;8.698;2024-03-08T00:46:45;0.30;1.00
4813;DHT22;2420;51.202;8.698;2024-03-08T00:49:11;0.20;1.00
4813;DHT22;2420;51.202;8.698;2024-03-08T00:51:38;0.00;1.00
4813;DHT22;2420;51.202;8.698;2024-03-08T00:54:03;-0.10;1.00
4813;DHT22;2420;51.202;8.698;2024-03-08T00:56:29;0.20;1.00
4813;DHT22;2420;51.202;8.698;2024-03-08T00:58:55;0.10;1.00
4813;DHT22;2420;51.202;8.698;2024-03-08T01:01:20;-0.10;1.00
4813;DHT22;2420;51.202;8.698;2024-03-08T01:03:46;-0.10;1.00
4813;DHT22;2420;51.202;8.698;2024-03-08T01:06:11;0.10;1.00
4813;DHT22;2420;51.202;8.698;2024-03-08T01:08:37;-0.10;1.00
4813;DHT22;2420;51.202;8.698;2024-03-08T01:11:08;0.10;1.00
4813;DHT22;2420;51.202;8.698;2024-03-08T01:13:34;-0.10;1.00
4813;DHT22;2420;51.202;8.698;2024-03-08T01:15:59;-0.20;1.00
4813;DHT22;2420;51.202;8.698;2024-03-08T01:18:25;0.00;1.00
4813;DHT22;2420;51.202;8.698;2024-03-08T01:20:50;-0.10;1.00
4813;DHT22;2420;51.202;8.698;2024-03-08T01:23:16;0.30;1.00
4813;DHT22;2420;51.202;8.698;2024-03-08T01:25:42;0.00;1.00
4813;DHT22;2420;51.202;8.698;2024-03-08T01:28:09;0.20;1.00
4813;DHT22;2420;51.202;8.698;2024-03-08T01:30:35;-0.10;1.00
4813;DHT22;2420;51.202;8.698;2024-03-08T01:33:02;-0.10;1.00
4813;DHT22;2420;51.202;8.698;2024-03-08T01:35:28;-0.10;1.00
4813;DHT22;2420;51.202;8.698;2024-03-08T01:37:53;0.10;1.00
4813;DHT22;2420;51.202;8.698;2024-03-08T01:40:19;-0.10;1.00
4813;DHT22;2420;51.202;8.698;2024-03-08T01:42:44;-0.10;1.00
4813;DHT22;2420;51.202;8.698;2024-03-08T01:45:10;-0.10;1.00
4813;DHT22;2420;51.202;8.698;2024-03-08T01:47:37;-0.20;1.00
4813;DHT22;2420;51.202;8.698;2024-03-08T01:50:03;0.00;1.00
4813;DHT22;2420;51.202;8.698;2024-03-08T01:52:30;-0.10;1.00
4813;DHT22;2420;51.202;8.698;2024-03-08T01:55:02;-0.20;1.00
4813;DHT22;2420;51.202;8.698;2024-03-08T01:57:31;-0.20;1.00
4813;DHT22;2420;51.202;8.698;2024-03-08T01:59:57;-0.10;1.00
4813;DHT22;2420;51.202;8.698;2024-03-08T02:02:22;-0.20;1.00
4813;DHT22;2420;51.202;8.698;2024-03-08T02:04:48;-0.40;1.00
4813;DHT22;2420;51.202;8.698;2024-03-08T02:07:16;0.00;1.00
4813;DHT22;2420;51.202;8.698;2024-03-08T02:09:41;-0.30;1.00
4813;DHT22;2420;51.202;8.698;2024-03-08T02:12:07;-0.10;1.00
4813;DHT22;2420;51.202;8.698;2024-03-08T02:14:33;-0.30;1.00
4813;DHT22;2420;51.202;8.698;2024-03-08T02:17:02;-0.60;1.00
4813;DHT22;2420;51.202;8.698;2024-03-08T02:19:28;-0.30;1.00
4813;DHT22;2420;51.202;8.698;2024-03-08T02:21:53;-0.40;1.00
4813;DHT22;2420;51.202;8.698;2024-03-08T02:24:19;-0.50;1.00
4813;DHT22;2420;51.202;8.698;2024-03-08T02:26:45;-0.60;1.00
4813;DHT22;2420;51.202;8.698;2024-03-08T02:29:11;-0.70;1.00
4813;DHT22;2420;51.202;8.698;2024-03-08T02:31:37;-0.70;1.00
4813;DHT22;2420;51.202;8.698;2024-03-08T02:34:04;-0.40;1.00
4813;DHT22;2420;51.202;8.698;2024-03-08T02:36:30;-0.60;1.00
4813;DHT22;2420;51.202;8.698;2024-03-08T02:39:01;-0.50;1.00
4813;DHT22;2420;51.202;8.698;2024-03-08T02:41:27;-0.50;1.00
4813;DHT22;2420;51.202;8.698;2024-03-08T02:43:53;-0.60;1.00
4813;DHT22;2420;51.202;8.698;2024-03-08T02:46:20;-0.30;1.00
4813;DHT22;2420;51.202;8.698;2024-03-08T02:48:46;-0.40;1.00
4813;DHT22;2420;51.202;8.698;2024-03-08T02:51:12;-0.40;1.00
4813;DHT22;2420;51.202;8.698;2024-03-08T02:53:38;-0.50;1.00
4813;DHT22;2420;51.202;8.698;2024-03-08T02:56:04;-0.70;1.00
4813;DHT22;2420;51.202;8.698;2024-03-08T02:58:33;-0.50;1.00
4813;DHT22;2420;51.202;8.698;2024-03-08T03:00:59;-0.60;1.00
4813;DHT22;2420;51.202;8.698;2024-03-08T03:03:25;-0.50;1.00
4813;DHT22;2420;51.202;8.698;2024-03-08T03:05:52;-0.60;1.00
4813;DHT22;2420;51.202;8.698;2024-03-08T03:08:21;-0.70;1.00
4813;DHT22;2420;51.202;8.698;2024-03-08T03:10:46;-0.80;1.00
4813;DHT22;2420;51.202;8.698;2024-03-08T03:13:12;-0.60;1.00
4813;DHT22;2420;51.202;8.698;2024-03-08T03:15:39;-0.60;1.00
4813;DHT22;2420;51.202;8.698;2024-03-08T03:18:07;-0.50;1.00
4813;DHT22;2420;51.202;8.698;2024-03-08T03:20:33;-0.70;1.00
4813;DHT22;2420;51.202;8.698;2024-03-08T03:23:02;-0.50;1.00
4813;DHT22;2420;51.202;8.698;2024-03-08T03:25:28;-0.60;1.00
4813;DHT22;2420;51.202;8.698;2024-03-08T03:27:59;-0.90;1.00
4813;DHT22;2420;51.202;8.698;2024-03-08T03:30:25;-0.70;1.00
4813;DHT22;2420;51.202;8.698;2024-03-08T03:32:52;-0.80;1.00
4813;DHT22;2420;51.202;8.698;2024-03-08T03:35:18;-0.80;1.00
4813;DHT22;2420;51.202;8.698;2024-03-08T03:37:46;-0.70;1.00
4813;DHT22;2420;51.202;8.698;2024-03-08T03:40:29;-0.70;1.00
4813;DHT22;2420;51.202;8.698;2024-03-08T03:42:55;-0.70;1.00
4813;DHT22;2420;51.202;8.698;2024-03-08T03:45:21;-0.70;1.00
4813;DHT22;2420;51.202;8.698;2024-03-08T03:47:47;-0.60;1.00
4813;DHT22;2420;51.202;8.698;2024-03-08T03:50:12;-0.80;1.00
4813;DHT22;2420;51.202;8.698;2024-03-08T03:52:38;-0.70;1.00
4813;DHT22;2420;51.202;8.698;2024-03-08T03:55:04;-0.80;1.00
4813;DHT22;2420;51.202;8.698;2024-03-08T03:57:30;-0.90;1.00
4813;DHT22;2420;51.202;8.698;2024-03-08T03:59:56;-0.60;1.00
4813;DHT22;2420;51.202;8.698;2024-03-08T04:02:24;-1.00;1.00
4813;DHT22;2420;51.202;8.698;2024-03-08T04:04:49;-0.90;1.00
4813;DHT22;2420;51.202;8.698;2024-03-08T04:07:15;-0.80;1.00
4813;DHT22;2420;51.202;8.698;2024-03-08T04:09:40;-0.80;1.00
4813;DHT22;2420;51.202;8.698;2024-03-08T04:12:06;-1.00;1.00
4813;DHT22;2420;51.202;8.698;2024-03-08T04:14:32;-0.90;1.00
4813;DHT22;2420;51.202;8.698;2024-03-08T04:16:58;-0.80;1.00
4813;DHT22;2420;51.202;8.698;2024-03-08T04:19:24;-0.90;1.00
4813;DHT22;2420;51.202;8.698;2024-03-08T04:21:51;-1.10;1.00
4813;DHT22;2420;51.202;8.698;2024-03-08T04:24:17;-0.90;1.00
4813;DHT22;2420;51.202;8.698;2024-03-08T04:26:42;-0.80;1.00
4813;DHT22;2420;51.202;8.698;2024-03-08T04:29:08;-1.00;1.00
4813;DHT22;2420;51.202;8.698;2024-03-08T04:31:34;-0.90;1.00
4813;DHT22;2420;51.202;8.698;2024-03-08T04:33:59;-0.90;1.00
4813;DHT22;2420;51.202;8.698;2024-03-08T04:36:25;-0.90;1.00
4813;DHT22;2420;51.202;8.698;2024-03-08T04:38:51;-1.00;1.00
4813;DHT22;2420;51.202;8.698;2024-03-08T04:41:17;-1.00;1.00
4813;DHT22;2420;51.202;8.698;2024-03-08T04:43:43;-0.90;1.00
4813;DHT22;2420;51.202;8.698;2024-03-08T04:46:09;-1.00;1.00
4813;DHT22;2420;51.202;8.698;2024-03-08T04:48:35;-1.00;1.00
4813;DHT22;2420;51.202;8.698;2024-03-08T04:51:02;-0.90;1.00
4813;DHT22;2420;51.202;8.698;2024-03-08T04:53:29;-1.10;1.00
4813;DHT22;2420;51.202;8.698;2024-03-08T04:55:55;-1.10;1.00
4813;DHT22;2420;51.202;8.698;2024-03-08T04:58:23;-1.10;1.00
4813;DHT22;2420;51.202;8.698;2024-03-08T05:00:48;-1.10;1.00
4813;DHT22;2420;51.202;8.698;2024-03-08T05:03:14;-1.00;1.00
4813;DHT22;2420;51.202;8.698;2024-03-08T05:05:40;-1.10;1.00
4813;DHT22;2420;51.202;8.698;2024-03-08T05:08:05;-1.20;1.00
4813;DHT22;2420;51.202;8.698;2024-03-08T05:10:31;-1.10;1.00
4813;DHT22;2420;51.202;8.698;2024-03-08T05:12:58;-1.10;1.00
4813;DHT22;2420;51.202;8.698;2024-03-08T05:15:23;-1.10;1.00
4813;DHT22;2420;51.202;8.698;2024-03-08T05:17:49;-1.10;1.00
4813;DHT22;2420;51.202;8.698;2024-03-08T05:20:15;-1.20;1.00
4813;DHT22;2420;51.202;8.698;2024-03-08T05:22:42;-1.30;1.00
4813;DHT22;2420;51.202;8.698;2024-03-08T05:25:08;-1.10;1.00
4813;DHT22;2420;51.202;8.698;2024-03-08T05:27:35;-1.40;1.00
4813;DHT22;2420;51.202;8.698;2024-03-08T05:30:04;-1.30;1.00
4813;DHT22;2420;51.202;8.698;2024-03-08T05:32:31;-1.30;1.00
4813;DHT22;2420;51.202;8.698;2024-03-08T05:34:56;-1.20;1.00
4813;DHT22;2420;51.202;8.698;2024-03-08T05:37:22;-1.20;1.00
4813;DHT22;2420;51.202;8.698;2024-03-08T05:39:47;-1.20;1.00
4813;DHT22;2420;51.202;8.698;2024-03-08T05:42:13;-1.20;1.00
4813;DHT22;2420;51.202;8.698;2024-03-08T05:44:39;-1.50;1.00
4813;DHT22;2420;51.202;8.698;2024-03-08T05:47:06;-1.20;1.00
4813;DHT22;2420;51.202;8.698;2024-03-08T05:49:32;-1.20;1.00
4813;DHT22;2420;51.202;8.698;2024-03-08T05:51:57;-1.40;1.00
4813;DHT22;2420;51.202;8.698;2024-03-08T05:54:24;-1.10;1.00
4813;DHT22;2420;51.202;8.698;2024-03-08T05:56:50;-1.20;1.00
4813;DHT22;2420;51.202;8.698;2024-03-08T05:59:18;-1.40;1.00
4813;DHT22;2420;51.202;8.698;2024-03-08T06:01:44;-1.00;1.00
4813;DHT22;2420;51.202;8.698;2024-03-08T06:04:11;-1.00;1.00
4813;DHT22;2420;51.202;8.698;2024-03-08T06:06:37;-1.20;1.00
4813;DHT22;2420;51.202;8.698;2024-03-08T06:09:05;-1.40;1.00
4813;DHT22;2420;51.202;8.698;2024-03-08T06:11:41;-1.40;1.00
4813;DHT22;2420;51.202;8.698;2024-03-08T06:14:07;-1.20;1.00
4813;DHT22;2420;51.202;8.698;2024-03-08T06:16:33;-1.40;1.00
4813;DHT22;2420;51.202;8.698;2024-03-08T06:18:59;-1.50;1.00
4813;DHT22;2420;51.202;8.698;2024-03-08T06:21:27;-1.30;1.00
4813;DHT22;2420;51.202;8.698;2024-03-08T06:23:55;-1.20;1.00
4813;DHT22;2420;51.202;8.698;2024-03-08T06:26:23;-1.20;1.00
4813;DHT22;2420;51.202;8.698;2024-03-08T06:28:49;-1.30;1.00
4813;DHT22;2420;51.202;8.698;2024-03-08T06:31:16;-1.30;1.00
4813;DHT22;2420;51.202;8.698;2024-03-08T06:33:41;-1.10;1.00
4813;DHT22;2420;51.202;8.698;2024-03-08T06:36:09;-1.30;1.00
4813;DHT22;2420;51.202;8.698;2024-03-08T06:38:34;-1.00;1.00
4813;DHT22;2420;51.202;8.698;2024-03-08T06:41:00;-1.00;1.00
4813;DHT22;2420;51.202;8.698;2024-03-08T06:43:28;-1.10;1.00
4813;DHT22;2420;51.202;8.698;2024-03-08T06:45:59;-1.20;1.00
4813;DHT22;2420;51.202;8.698;2024-03-08T06:48:25;-1.10;1.00
4813;DHT22;2420;51.202;8.698;2024-03-08T06:50:50;-1.00;1.00
4813;DHT22;2420;51.202;8.698;2024-03-08T06:53:16;-0.80;1.00
4813;DHT22;2420;51.202;8.698;2024-03-08T06:55:44;-0.80;1.00
4813;DHT22;2420;51.202;8.698;2024-03-08T06:58:10;-0.60;1.00
4813;DHT22;2420;51.202;8.698;2024-03-08T07:00:36;-0.60;1.00
4813;DHT22;2420;51.202;8.698;2024-03-08T07:03:02;-0.60;1.00
4813;DHT22;2420;51.202;8.698;2024-03-08T07:05:29;-0.40;1.00
4813;DHT22;2420;51.202;8.698;2024-03-08T07:07:55;-0.40;1.00
4813;DHT22;2420;51.202;8.698;2024-03-08T07:10:22;-0.20;1.00
4813;DHT22;2420;51.202;8.698;2024-03-08T07:12:50;-0.40;1.00
4813;DHT22;2420;51.202;8.698;2024-03-08T07:15:16;-0.20;1.00
4813;DHT22;2420;51.202;8.698;2024-03-08T07:17:45;0.00;1.00
4813;DHT22;2420;51.202;8.698;2024-03-08T07:20:11;-0.20;1.00
4813;DHT22;2420;51.202;8.698;2024-03-08T07:22:39;-0.10;1.00
4813;DHT22;2420;51.202;8.698;2024-03-08T07:25:05;0.10;1.00
4813;DHT22;2420;51.202;8.698;2024-03-08T07:27:50;0.20;1.00
4813;DHT22;2420;51.202;8.698;2024-03-08T07:30:17;0.30;1.00
4813;DHT22;2420;51.202;8.698;2024-03-08T07:33:03;0.30;1.00
4813;DHT22;2420;51.202;8.698;2024-03-08T07:35:29;0.40;1.00
4813;DHT22;2420;51.202;8.698;2024-03-08T07:37:56;0.50;1.00
4813;DHT22;2420;51.202;8.698;2024-03-08T07:40:22;0.40;1.00
4813;DHT22;2420;51.202;8.698;2024-03-08T07:42:51;0.80;1.00
4813;DHT22;2420;51.202;8.698;2024-03-08T07:45:17;0.70;1.00
4813;DHT22;2420;51.202;8.698;2024-03-08T07:47:43;0.90;1.00
4813;DHT22;2420;51.202;8.698;2024-03-08T07:50:09;0.90;1.00
4813;DHT22;2420;51.202;8.698;2024-03-08T07:52:35;0.90;1.00
4813;DHT22;2420;51.202;8.698;2024-03-08T07:55:01;0.80;1.00
4813;DHT22;2420;51.202;8.698;2024-03-08T07:57:27;0.80;1.00
4813;DHT22;2420;51.202;8.698;2024-03-08T07:59:53;0.90;1.00
4813;DHT22;2420;51.202;8.698;2024-03-08T08:02:18;1.10;1.00
4813;DHT22;2420;51.202;8.698;2024-03-08T08:04:44;0.90;1.00
4813;DHT22;2420;51.202;8.698;2024-03-08T08:07:12;0.80;1.00
4813;DHT22;2420;51.202;8.698;2024-03-08T08:09:39;1.00;1.00
4813;DHT22;2420;51.202;8.698;2024-03-08T08:12:04;1.10;1.00
4813;DHT22;2420;51.202;8.698;2024-03-08T08:14:30;1.40;1.00
4813;DHT22;2420;51.202;8.698;2024-03-08T08:16:56;1.30;1.00
4813;DHT22;2420;51.202;8.698;2024-03-08T08:19:23;1.40;1.00
4813;DHT22;2420;51.202;8.698;2024-03-08T08:21:48;1.50;1.00
4813;DHT22;2420;51.202;8.698;2024-03-08T08:24:14;1.60;1.00
4813;DHT22;2420;51.202;8.698;2024-03-08T08:26:40;1.60;1.00
4813;DHT22;2420;51.202;8.698;2024-03-08T08:29:07;1.50;1.00
4813;DHT22;2420;51.202;8.698;2024-03-08T08:31:32;1.90;1.00
4813;DHT22;2420;51.202;8.698;2024-03-08T08:33:58;2.10;1.00
4813;DHT22;2420;51.202;8.698;2024-03-08T08:36:25;1.90;1.00
4813;DHT22;2420;51.202;8.698;2024-03-08T08:38:50;2.00;1.00
4813;DHT22;2420;51.202;8.698;2024-03-08T08:41:16;1.90;1.00
4813;DHT22;2420;51.202;8.698;2024-03-08T08:43:43;2.10;1.00
4813;DHT22;2420;51.202;8.698;2024-03-08T08:46:11;2.10;1.00
4813;DHT22;2420;51.202;8.698;2024-03-08T08:48:39;2.30;1.00
4813;DHT22;2420;51.202;8.698;2024-03-08T08:51:14;2.40;1.00
4813;DHT22;2420;51.202;8.698;2024-03-08T08:53:41;2.40;1.00
4813;DHT22;2420;51.202;8.698;2024-03-08T08:56:10;2.50;1.00
4813;DHT22;2420;51.202;8.698;2024-03-08T08:58:41;2.60;1.00
4813;DHT22;2420;51.202;8.698;2024-03-08T09:01:08;2.60;1.00
4813;DHT22;2420;51.202;8.698;2024-03-08T09:03:35;2.60;1.00
4813;DHT22;2420;51.202;8.698;2024-03-08T09:06:05;2.80;1.00
4813;DHT22;2420;51.202;8.698;2024-03-08T09:08:30;2.60;1.00
4813;DHT22;2420;51.202;8.698;2024-03-08T09:10:56;2.90;1.00
4813;DHT22;2420;51.202;8.698;2024-03-08T09:13:22;2.90;1.00
4813;DHT22;2420;51.202;8.698;2024-03-08T09:15:48;3.00;1.00
4813;DHT22;2420;51.202;8.698;2024-03-08T09:18:14;3.40;1.00
4813;DHT22;2420;51.202;8.698;2024-03-08T09:20:39;3.60;1.00
4813;DHT22;2420;51.202;8.698;2024-03-08T09:23:06;3.20;1.00
4813;DHT22;2420;51.202;8.698;2024-03-08T09:25:33;3.50;1.00
4813;DHT22;2420;51.202;8.698;2024-03-08T09:27:58;3.80;1.00
4813;DHT22;2420;51.202;8.698;2024-03-08T09:30:24;3.80;1.00
4813;DHT22;2420;51.202;8.698;2024-03-08T09:32:49;3.80;1.00
4813;DHT22;2420;51.202;8.698;2024-03-08T09:35:16;3.90;1.00
4813;DHT22;2420;51.202;8.698;2024-03-08T09:37:42;4.10;1.00
4813;DHT22;2420;51.202;8.698;2024-03-08T09:40:07;4.00;1.00
4813;DHT22;2420;51.202;8.698;2024-03-08T09:42:43;4.30;1.00
4813;DHT22;2420;51.202;8.698;2024-03-08T09:45:10;4.20;1.00
4813;DHT22;2420;51.202;8.698;2024-03-08T09:47:41;4.30;1.00
4813;DHT22;2420;51.202;8.698;2024-03-08T09:50:08;4.30;1.00
4813;DHT22;2420;51.202;8.698;2024-03-08T09:52:56;4.40;1.00
4813;DHT22;2420;51.202;8.698;2024-03-08T09:55:22;4.70;1.00
4813;DHT22;2420;51.202;8.698;2024-03-08T09:57:48;4.70;1.00
4813;DHT22;2420;51.202;8.698;2024-03-08T10:00:33;4.70;1.00
4813;DHT22;2420;51.202;8.698;2024-03-08T10:03:02;4.70;1.00
4813;DHT22;2420;51.202;8.698;2024-03-08T10:05:29;4.70;1.00
4813;DHT22;2420;51.202;8.698;2024-03-08T10:07:56;5.00;1.00
4813;DHT22;2420;51.202;8.698;2024-03-08T10:10:24;5.00;1.00
4813;DHT22;2420;51.202;8.698;2024-03-08T10:12:49;4.70;1.00
4813;DHT22;2420;51.202;8.698;2024-03-08T10:15:16;4.50;1.00
4813;DHT22;2420;51.202;8.698;2024-03-08T10:17:45;4.80;1.00
4813;DHT22;2420;51.202;8.698;2024-03-08T10:20:15;4.90;1.00
4813;DHT22;2420;51.202;8.698;2024-03-08T10:22:41;5.30;1.00
4813;DHT22;2420;51.202;8.698;2024-03-08T10:25:11;5.10;1.00
4813;DHT22;2420;51.202;8.698;2024-03-08T10:27:38;4.90;1.00
4813;DHT22;2420;51.202;8.698;2024-03-08T10:30:06;5.10;1.00
4813;DHT22;2420;51.202;8.698;2024-03-08T10:32:35;5.10;1.00
4813;DHT22;2420;51.202;8.698;2024-03-08T10:35:01;5.40;1.00
4813;DHT22;2420;51.202;8.698;2024-03-08T10:37:27;5.60;1.00
4813;DHT22;2420;51.202;8.698;2024-03-08T10:40:03;5.10;1.00
4813;DHT22;2420;51.202;8.698;2024-03-08T10:42:40;5.30;1.00
4813;DHT22;2420;51.202;8.698;2024-03-08T10:45:15;5.30;1.00
4813;DHT22;2420;51.202;8.698;2024-03-08T10:47:49;5.50;1.00
4813;DHT22;2420;51.202;8.698;2024-03-08T10:50:19;5.40;1.00
4813;DHT22;2420;51.202;8.698;2024-03-08T10:52:51;5.60;1.00
4813;DHT22;2420;51.202;8.698;2024-03-08T10:55:19;5.60;1.00
4813;DHT22;2420;51.202;8.698;2024-03-08T10:57:46;5.80;1.00
4813;DHT22;2420;51.202;8.698;2024-03-08T11:00:13;5.30;1.00
4813;DHT22;2420;51.202;8.698;2024-03-08T11:02:43;5.10;1.00
4813;DHT22;2420;51.202;8.698;2024-03-08T11:05:10;5.40;1.00
4813;DHT22;2420;51.202;8.698;2024-03-08T11:07:42;5.30;1.00
4813;DHT22;2420;51.202;8.698;2024-03-08T11:10:19;5.60;1.00
4813;DHT22;2420;51.202;8.698;2024-03-08T11:12:45;5.90;1.00
4813;DHT22;2420;51.202;8.698;2024-03-08T11:15:13;5.90;1.00
4813;DHT22;2420;51.202;8.698;2024-03-08T11:17:48;5.40;1.00
4813;DHT22;2420;51.202;8.698;2024-03-08T11:20:16;5.70;1.00
4813;DHT22;2420;51.202;8.698;2024-03-08T11:22:55;5.80;1.00
4813;DHT22;2420;51.202;8.698;2024-03-08T11:25:34;5.70;1.00
4813;DHT22;2420;51.202;8.698;2024-03-08T11:28:23;5.80;1.00
4813;DHT22;2420;51.202;8.698;2024-03-08T11:33:31;5.80;1.00
4813;DHT22;2420;51.202;8.698;2024-03-08T11:36:10;6.00;1.00
4813;DHT22;2420;51.202;8.698;2024-03-08T11:41:09;6.20;1.00
4813;DHT22;2420;51.202;8.698;2024-03-08T11:43:38;6.30;1.00
4813;DHT22;2420;51.202;8.698;2024-03-08T11:46:09;6.00;1.00
4813;DHT22;2420;51.202;8.698;2024-03-08T11:48:35;5.70;1.00
4813;DHT22;2420;51.202;8.698;2024-03-08T11:51:03;6.30;1.00
4813;DHT22;2420;51.202;8.698;2024-03-08T11:53:30;6.40;1.00
4813;DHT22;2420;51.202;8.698;2024-03-08T11:56:12;6.50;1.00
4813;DHT22;2420;51.202;8.698;2024-03-08T11:58:39;6.40;1.00
4813;DHT22;2420;51.202;8.698;2024-03-08T12:01:11;6.50;1.00
4813;DHT22;2420;51.202;8.698;2024-03-08T12:03:38;6.60;1.00
4813;DHT22;2420;51.202;8.698;2024-03-08T12:06:04;6.30;1.00
4813;DHT22;2420;51.202;8.698;2024-03-08T12:08:30;6.30;1.00
4813;DHT22;2420;51.202;8.698;2024-03-08T12:10:57;6.30;1.00
4813;DHT22;2420;51.202;8.698;2024-03-08T12:13:27;6.60;1.00
4813;DHT22;2420;51.202;8.698;2024-03-08T12:15:58;6.60;1.00
4813;DHT22;2420;51.202;8.698;2024-03-08T12:18:29;6.80;1.00
4813;DHT22;2420;51.202;8.698;2024-03-08T12:23:35;6.60;1.00
4813;DHT22;2420;51.202;8.698;2024-03-08T12:26:15;6.70;1.00
4813;DHT22;2420;51.202;8.698;2024-03-08T12:28:45;6.30;1.00
4813;DHT22;2420;51.202;8.698;2024-03-08T12:31:17;6.70;1.00
4813;DHT22;2420;51.202;8.698;2024-03-08T12:36:15;6.80;1.00
4813;DHT22;2420;51.202;8.698;2024-03-08T12:38:47;6.90;1.00
4813;DHT22;2420;51.202;8.698;2024-03-08T12:41:17;6.70;1.00
4813;DHT22;2420;51.202;8.698;2024-03-08T12:43:44;6.90;1.00
4813;DHT22;2420;51.202;8.698;2024-03-08T12:46:20;6.90;1.00
4813;DHT22;2420;51.202;8.698;2024-03-08T12:48:46;6.60;1.00
4813;DHT22;2420;51.202;8.698;2024-03-08T12:51:16;7.10;1.00
4813;DHT22;2420;51.202;8.698;2024-03-08T12:53:45;7.20;1.00
4813;DHT22;2420;51.202;8.698;2024-03-08T12:56:11;7.30;1.00
4813;DHT22;2420;51.202;8.698;2024-03-08T12:58:37;7.30;1.00
4813;DHT22;2420;51.202;8.698;2024-03-08T13:01:04;7.40;1.00
4813;DHT22;2420;51.202;8.698;2024-03-08T13:03:35;7.40;1.00
4813;DHT22;2420;51.202;8.698;2024-03-08T13:06:02;7.30;1.00
4813;DHT22;2420;51.202;8.698;2024-03-08T13:08:29;7.20;1.00
4813;DHT22;2420;51.202;8.698;2024-03-08T13:10:56;7.00;1.00
4813;DHT22;2420;51.202;8.698;2024-03-08T13:13:22;6.90;1.00
4813;DHT22;2420;51.202;8.698;2024-03-08T13:15:48;7.00;1.00
4813;DHT22;2420;51.202;8.698;2024-03-08T13:18:14;6.60;1.00
4813;DHT22;2420;51.202;8.698;2024-03-08T13:20:41;7.10;1.00
4813;DHT22;2420;51.202;8.698;2024-03-08T13:23:09;7.00;1.00
4813;DHT22;2420;51.202;8.698;2024-03-08T13:25:34;7.10;1.00
4813;DHT22;2420;51.202;8.698;2024-03-08T13:28:04;7.00;1.00
4813;DHT22;2420;51.202;8.698;2024-03-08T13:30:30;7.00;1.00
4813;DHT22;2420;51.202;8.698;2024-03-08T13:32:56;6.90;1.00
4813;DHT22;2420;51.202;8.698;2024-03-08T13:35:21;7.00;1.00
4813;DHT22;2420;51.202;8.698;2024-03-08T13:37:52;7.10;1.00
4813;DHT22;2420;51.202;8.698;2024-03-08T13:40:18;7.20;1.00
4813;DHT22;2420;51.202;8.698;2024-03-08T13:42:46;7.10;1.00
4813;DHT22;2420;51.202;8.698;2024-03-08T13:45:12;7.30;1.00
4813;DHT22;2420;51.202;8.698;2024-03-08T13:47:40;7.40;1.00
4813;DHT22;2420;51.202;8.698;2024-03-08T13:50:07;7.50;1.00
4813;DHT22;2420;51.202;8.698;2024-03-08T13:52:37;7.70;1.00
4813;DHT22;2420;51.202;8.698;2024-03-08T13:55:07;7.90;1.00
4813;DHT22;2420;51.202;8.698;2024-03-08T13:57:33;7.90;1.00
4813;DHT22;2420;51.202;8.698;2024-03-08T13:59:59;7.90;1.00
4813;DHT22;2420;51.202;8.698;2024-03-08T14:02:25;7.90;1.00
4813;DHT22;2420;51.202;8.698;2024-03-08T14:04:56;7.70;1.00
4813;DHT22;2420;51.202;8.698;2024-03-08T14:07:22;7.60;1.00
4813;DHT22;2420;51.202;8.698;2024-03-08T14:09:52;7.70;1.00
4813;DHT22;2420;51.202;8.698;2024-03-08T14:12:18;7.60;1.00
4813;DHT22;2420;51.202;8.698;2024-03-08T14:14:44;7.60;1.00
4813;DHT22;2420;51.202;8.698;2024-03-08T14:17:10;7.60;1.00
4813;DHT22;2420;51.202;8.698;2024-03-08T14:19:36;7.60;1.00
4813;DHT22;2420;51.202;8.698;2024-03-08T14:22:02;7.20;1.00
4813;DHT22;2420;51.202;8.698;2024-03-08T14:24:30;7.20;1.00
4813;DHT22;2420;51.202;8.698;2024-03-08T14:26:56;7.10;1.00
4813;DHT22;2420;51.202;8.698;2024-03-08T14:29:26;7.00;1.00
4813;DHT22;2420;51.202;8.698;2024-03-08T14:31:55;7.00;1.00
4813;DHT22;2420;51.202;8.698;2024-03-08T14:34:24;7.10;1.00
4813;DHT22;2420;51.202;8.698;2024-03-08T14:36:52;7.10;1.00
4813;DHT22;2420;51.202;8.698;2024-03-08T14:39:18;7.30;1.00
4813;DHT22;2420;51.202;8.698;2024-03-08T14:41:47;7.40;1.00
4813;DHT22;2420;51.202;8.698;2024-03-08T14:44:13;7.30;1.00
4813;DHT22;2420;51.202;8.698;2024-03-08T14:46:38;7.50;1.00
4813;DHT22;2420;51.202;8.698;2024-03-08T14:49:04;7.30;1.00
4813;DHT22;2420;51.202;8.698;2024-03-08T14:51:31;7.20;1.00
4813;DHT22;2420;51.202;8.698;2024-03-08T14:53:57;7.30;1.00
4813;DHT22;2420;51.202;8.698;2024-03-08T14:56:22;7.30;1.00
4813;DHT22;2420;51.202;8.698;2024-03-08T14:58:48;7.30;1.00
4813;DHT22;2420;51.202;8.698;2024-03-08T15:01:17;7.50;1.00
4813;DHT22;2420;51.202;8.698;2024-03-08T15:03:47;7.50;1.00
4813;DHT22;2420;51.202;8.698;2024-03-08T15:06:14;7.50;1.00
4813;DHT22;2420;51.202;8.698;2024-03-08T15:08:41;7.50;1.00
4813;DHT22;2420;51.202;8.698;2024-03-08T15:11:06;7.50;1.00
4813;DHT22;2420;51.202;8.698;2024-03-08T15:13:33;7.40;1.00
4813;DHT22;2420;51.202;8.698;2024-03-08T15:16:07;7.30;1.00
4813;DHT22;2420;51.202;8.698;2024-03-08T15:18:33;7.40;1.00
4813;DHT22;2420;51.202;8.698;2024-03-08T15:21:06;7.50;1.00
4813;DHT22;2420;51.202;8.698;2024-03-08T15:23:35;7.30;1.00
4813;DHT22;2420;51.202;8.698;2024-03-08T15:26:04;7.40;1.00
4813;DHT22;2420;51.202;8.698;2024-03-08T15:28:33;7.40;1.00
4813;DHT22;2420;51.202;8.698;2024-03-08T15:31:06;6.90;1.00
4813;DHT22;2420;51.202;8.698;2024-03-08T15:33:37;7.40;1.00
4813;DHT22;2420;51.202;8.698;2024-03-08T15:36:11;7.30;1.00
4813;DHT22;2420;51.202;8.698;2024-03-08T15:38:39;7.10;1.00
4813;DHT22;2420;51.202;8.698;2024-03-08T15:41:05;7.30;1.00
4813;DHT22;2420;51.202;8.698;2024-03-08T15:43:38;7.30;1.00
4813;DHT22;2420;51.202;8.698;2024-03-08T15:46:08;7.30;1.00
4813;DHT22;2420;51.202;8.698;2024-03-08T15:48:34;7.20;1.00
4813;DHT22;2420;51.202;8.698;2024-03-08T15:51:06;7.30;1.00
4813;DHT22;2420;51.202;8.698;2024-03-08T15:53:33;6.90;1.00
4813;DHT22;2420;51.202;8.698;2024-03-08T15:56:00;7.40;1.00
4813;DHT22;2420;51.202;8.698;2024-03-08T15:58:26;7.30;1.00
4813;DHT22;2420;51.202;8.698;2024-03-08T16:00:51;7.30;1.00
4813;DHT22;2420;51.202;8.698;2024-03-08T16:03:22;7.30;1.00
4813;DHT22;2420;51.202;8.698;2024-03-08T16:05:48;6.70;1.00
4813;DHT22;2420;51.202;8.698;2024-03-08T16:08:17;7.20;1.00
4813;DHT22;2420;51.202;8.698;2024-03-08T16:13:15;6.70;1.00
4813;DHT22;2420;51.202;8.698;2024-03-08T16:15:46;7.10;1.00
4813;DHT22;2420;51.202;8.698;2024-03-08T16:18:12;6.80;1.00
4813;DHT22;2420;51.202;8.698;2024-03-08T16:20:42;7.10;1.00
4813;DHT22;2420;51.202;8.698;2024-03-08T16:23:12;7.00;1.00
4813;DHT22;2420;51.202;8.698;2024-03-08T16:25:40;6.90;1.00
4813;DHT22;2420;51.202;8.698;2024-03-08T16:28:07;6.90;1.00
4813;DHT22;2420;51.202;8.698;2024-03-08T16:30:36;6.80;1.00
4813;DHT22;2420;51.202;8.698;2024-03-08T16:33:02;6.80;1.00
4813;DHT22;2420;51.202;8.698;2024-03-08T16:35:30;6.70;1.00
4813;DHT22;2420;51.202;8.698;2024-03-08T16:37:56;6.70;1.00
4813;DHT22;2420;51.202;8.698;2024-03-08T16:40:22;6.60;1.00
4813;DHT22;2420;51.202;8.698;2024-03-08T16:42:49;6.70;1.00